Time;durP1;ratioP1;P1;durP2;ratioP2;P2;SDS_P1;SDS_P2;PMS_P1;PMS_P2;Temp;Humidity;BMP_temperature;BMP_pressure;BME280_temperature;BME280_humidity;BME280_pressure;Samples;Min_cycle;Max_cycle;Signal;HPM_P1;HPM_P2
2022/06/10 06:43:23;;;;;;;7.70;3.38;;;;;;;18.57;72.31;99762.88;5101814;27;20233;-86
2022/06/10 06:45:50;;;;;;;8.43;1.90;;;;;;;18.86;72.58;99757.84;5068903;28;20535;-86
2022/06/10 06:48:17;;;;;;;10.05;1.92;;;;;;;19.22;67.02;99758.16;5068652;28;20059;-85
2022/06/10 06:50:47;;;;;;;7.10;1.50;;;;;;;19.39;67.20;99759.25;5070394;28;20051;-86
2022/06/10 06:53:14;;;;;;;5.22;1.65;;;;;;;19.40;63.19;99744.38;5073106;28;20072;-86
2022/06/10 06:55:44;;;;;;;5.03;1.48;;;;;;;19.85;64.42;99753.47;5068636;28;20053;-87
2022/06/10 06:58:12;;;;;;;;;;;;;;;19.65;63.87;99762.78;5069024;28;20052;-87
2022/06/10 07:00:40;;;;;;;9.10;1.80;;;;;;;19.70;64.60;99765.69;5069325;28;19927;-87
2022/06/10 07:03:07;;;;;;;5.68;1.75;;;;;;;20.17;62.31;99759.59;5067155;28;20051;-87
2022/06/10 07:05:36;;;;;;;8.43;1.85;;;;;;;20.27;59.37;99754.38;5059143;28;20572;-88
2022/06/10 07:08:04;;;;;;;5.07;1.25;;;;;;;20.60;58.91;99768.78;5068374;28;20051;-88
2022/06/10 07:10:31;;;;;;;6.13;1.52;;;;;;;20.96;57.43;99742.06;5068960;28;20110;-86
2022/06/10 07:12:58;;;;;;;4.85;1.50;;;;;;;20.71;56.17;99761.63;5067666;28;20049;-85
2022/06/10 07:15:24;;;;;;;7.47;1.35;;;;;;;21.03;55.27;99768.50;5067870;28;20045;-87
2022/06/10 07:17:53;;;;;;;5.78;1.40;;;;;;;20.33;57.52;99750.66;5066250;28;20068;-88
2022/06/10 07:20:24;;;;;;;5.20;1.30;;;;;;;20.63;56.02;99740.66;5058601;28;20040;-89
2022/06/10 07:22:51;;;;;;;7.45;1.67;;;;;;;20.84;56.00;99762.22;5077772;28;20479;-89
2022/06/10 07:25:17;;;;;;;7.10;1.75;;;;;;;19.96;59.57;99780.25;5058394;28;20056;-89
2022/06/10 07:27:44;;;;;;;3.60;1.20;;;;;;;20.35;58.68;99767.00;5066865;28;20076;-89
2022/06/10 07:30:13;;;;;;;5.63;1.48;;;;;;;20.72;57.38;99753.09;5066084;28;20135;-90
2022/06/10 07:32:40;;;;;;;4.40;1.50;;;;;;;20.85;56.44;99744.59;5064847;28;20547;-90
2022/06/10 07:35:09;;;;;;;6.85;1.33;;;;;;;21.16;54.61;99744.47;5060471;28;20055;-89
2022/06/10 07:37:36;;;;;;;4.68;1.27;;;;;;;20.92;56.54;99746.38;5066548;28;20152;-88
2022/06/10 07:40:04;;;;;;;3.92;1.38;;;;;;;21.18;57.48;99765.28;5065511;28;20447;-88
2022/06/10 07:42:30;;;;;;;7.63;1.90;;;;;;;21.42;55.00;99750.59;5079728;28;20125;-87
2022/06/10 07:44:57;;;;;;;6.68;1.55;;;;;;;21.16;55.95;99739.78;5088011;28;20136;-88
2022/06/10 07:47:24;;;;;;;3.15;1.27;;;;;;;21.62;54.86;99751.09;5088013;28;20483;-85
2022/06/10 07:49:50;;;;;;;5.45;1.30;;;;;;;21.66;54.27;99757.78;5088043;28;20052;-89
2022/06/10 07:52:18;;;;;;;8.27;1.42;;;;;;;21.61;56.03;99751.31;5104926;28;20076;-88
2022/06/10 07:54:45;;;;;;;3.05;1.25;;;;;;;21.25;56.79;99728.38;5099569;28;20040;-88
2022/06/10 07:57:12;;;;;;;8.55;1.50;;;;;;;21.78;57.08;99751.41;5093650;28;20067;-88
2022/06/10 07:59:42;;;;;;;5.18;1.73;;;;;;;21.30;56.13;99740.41;5077030;28;20045;-88
2022/06/10 08:02:09;;;;;;;14.93;3.35;;;;;;;21.36;54.72;99758.78;5067349;28;20056;-89
2022/06/10 08:04:36;;;;;;;5.85;1.35;;;;;;;21.25;54.82;99754.09;5064577;28;20131;-86
2022/06/10 08:07:03;;;;;;;4.68;1.75;;;;;;;21.08;55.35;99739.31;5063971;28;20052;-88
2022/06/10 08:09:31;;;;;;;3.60;1.20;;;;;;;21.17;55.21;99744.22;5072822;28;20045;-88
2022/06/10 08:11:58;;;;;;;5.43;1.50;;;;;;;20.91;55.04;99741.94;5072366;28;20052;-88
2022/06/10 08:14:25;;;;;;;4.43;1.45;;;;;;;20.96;55.85;99719.97;5072078;28;20114;-89
2022/06/10 08:16:53;;;;;;;3.47;1.08;;;;;;;20.03;58.02;99731.34;5071131;28;20044;-84
2022/06/10 08:19:20;;;;;;;4.70;1.38;;;;;;;20.96;57.69;99739.31;5069886;28;20044;-89
2022/06/10 08:24:34;;;;;;;4.18;1.58;;;;;;;20.75;57.12;99744.31;5081130;28;20051;-88
2022/06/10 08:27:01;;;;;;;;;;;;;;;21.03;58.34;99743.63;5088921;28;20135;-89
2022/06/10 08:29:27;;;;;;;5.40;1.45;;;;;;;21.33;57.37;99725.22;5082359;28;19921;-89
2022/06/10 08:31:54;;;;;;;2.88;1.55;;;;;;;21.45;56.44;99739.03;5064938;28;20515;-88
2022/06/10 08:34:21;;;;;;;5.65;1.30;;;;;;;21.68;54.70;99749.25;5070883;28;20099;-88
2022/06/10 08:36:47;;;;;;;9.52;2.15;;;;;;;21.65;56.81;99733.13;5072173;28;20068;-87
2022/06/10 08:39:17;;;;;;;3.67;1.30;;;;;;;21.37;54.31;99735.56;5082112;28;20796;-88
2022/06/10 08:42:04;;;;;;;3.85;1.50;;;;;;;21.72;53.47;99731.94;5080032;28;20041;-88
2022/06/10 08:44:38;;;;;;;6.05;1.48;;;;;;;20.97;54.23;99738.22;5066948;28;20400;-88
2022/06/10 08:47:37;;;;;;;7.15;1.67;;;;;;;21.27;56.89;99751.06;5061887;28;20079;-88
2022/06/10 08:50:20;;;;;;;4.45;1.60;;;;;;;21.29;56.65;99743.41;5011549;28;20061;-87
2022/06/10 08:52:57;;;;;;;3.33;1.33;;;;;;;21.50;57.79;99753.88;5066835;28;20491;-88
2022/06/10 08:55:41;;;;;;;6.78;1.63;;;;;;;21.79;55.82;99750.31;5074034;28;20075;-89
2022/06/10 08:58:17;;;;;;;8.32;1.30;;;;;;;21.65;54.77;99739.53;5083118;28;20570;-88
2022/06/10 09:00:45;;;;;;;4.57;1.27;;;;;;;21.73;53.50;99746.59;5085086;28;20057;-88
2022/06/10 09:03:16;;;;;;;5.75;1.40;;;;;;;21.89;51.00;99745.00;5069436;28;20548;-87
2022/06/10 09:05:46;;;;;;;6.55;1.20;;;;;;;21.59;53.47;99743.28;5062874;28;20052;-88
2022/06/10 09:08:17;;;;;;;;;;;;;;;21.61;52.20;99751.31;5069173;28;20082;-89
2022/06/10 09:10:47;;;;;;;5.78;1.45;;;;;;;21.91;50.73;99729.81;5071817;28;19927;-88
2022/06/10 09:13:31;;;;;;;7.57;1.67;;;;;;;22.13;49.90;99748.53;5070475;28;20094;-88
2022/06/10 09:16:04;;;;;;;3.25;1.20;;;;;;;22.10;48.86;99729.66;5071428;28;20561;-88
2022/06/10 09:18:40;;;;;;;4.60;0.98;;;;;;;22.22;50.98;99749.81;5071809;28;20187;-89
2022/06/10 09:21:13;;;;;;;7.72;2.13;;;;;;;22.23;49.20;99728.50;5071135;28;20127;-88
2022/06/10 09:23:42;;;;;;;5.10;1.50;;;;;;;22.03;50.33;99728.94;5070395;28;20496;-91
2022/06/10 09:26:13;;;;;;;4.93;1.48;;;;;;;22.08;48.29;99729.88;5071465;28;20514;-91
2022/06/10 09:28:42;;;;;;;3.88;1.10;;;;;;;22.15;49.15;99739.97;5076286;28;20229;-83
2022/06/10 09:31:18;;;;;;;6.40;1.35;;;;;;;22.21;49.69;99734.28;5069371;28;20052;-89
2022/06/10 09:33:52;;;;;;;4.60;1.35;;;;;;;22.56;48.12;99722.19;5064651;28;20042;-90
2022/06/10 09:36:28;;;;;;;5.88;1.35;;;;;;;22.65;47.94;99744.78;5070655;28;20582;-87
2022/06/10 09:39:04;;;;;;;4.70;1.10;;;;;;;22.35;45.92;99747.84;5069782;28;20067;-89
2022/06/10 09:41:39;;;;;;;9.32;1.67;;;;;;;22.40;46.18;99747.94;5067066;28;20072;-88
2022/06/10 09:44:22;;;;;;;2.67;1.08;;;;;;;22.59;46.92;99752.16;5069721;28;20432;-90
2022/06/10 09:47:17;;;;;;;8.15;1.60;;;;;;;22.58;43.67;99753.28;5070418;28;20075;-90
2022/06/10 09:50:10;;;;;;;7.22;1.58;;;;;;;22.70;45.07;99741.25;5065627;28;20048;-91
2022/06/10 09:52:47;;;;;;;6.32;1.58;;;;;;;22.70;45.87;99728.28;5051701;28;20064;-89
2022/06/10 09:55:28;;;;;;;6.20;1.30;;;;;;;22.88;45.74;99732.69;5050959;28;20059;-89
2022/06/10 09:58:27;;;;;;;3.50;1.30;;;;;;;22.90;45.25;99737.97;5051446;28;20135;-89
2022/06/10 10:01:01;;;;;;;4.05;1.08;;;;;;;22.98;45.26;99745.91;5031432;28;20057;-90
2022/06/10 10:03:44;;;;;;;12.02;1.55;;;;;;;23.26;42.83;99727.47;5063258;28;20109;-92
2022/06/10 10:06:35;;;;;;;6.10;1.67;;;;;;;23.40;44.12;99726.03;5071416;28;20079;-89
2022/06/10 10:09:12;;;;;;;4.65;1.30;;;;;;;23.36;42.44;99724.03;5071241;28;20048;-90
2022/06/10 10:11:46;;;;;;;3.67;1.10;;;;;;;23.76;41.16;99714.56;5078394;28;20045;-91
2022/06/10 10:14:23;;;;;;;3.95;1.02;;;;;;;23.69;41.17;99700.88;5067143;28;20508;-89
2022/06/10 10:17:07;;;;;;;4.18;1.20;;;;;;;23.33;42.30;99719.81;5063420;28;20444;-90
2022/06/10 10:19:54;;;;;;;3.35;1.20;;;;;;;23.12;42.20;99705.69;5069250;28;20143;-89
2022/06/10 10:22:56;;;;;;;7.18;1.30;;;;;;;22.82;43.34;99696.84;5071561;28;20041;-89
2022/06/10 10:25:26;;;;;;;2.42;0.63;;;;;;;23.21;40.52;99696.91;5060057;28;20056;-87
2022/06/10 10:27:54;;;;;;;4.60;1.02;;;;;;;23.35;41.25;99692.69;5070194;28;20041;-90
2022/06/10 10:30:24;;;;;;;3.45;0.90;;;;;;;23.57;42.30;99703.78;5069576;28;20543;-89
2022/06/10 10:32:59;;;;;;;5.97;1.35;;;;;;;23.99;40.97;99700.44;5069481;28;20131;-89
2022/06/10 10:35:30;;;;;;;4.03;1.20;;;;;;;24.41;41.22;99706.44;5063000;28;20114;-90
2022/06/10 10:38:00;;;;;;;3.92;1.25;;;;;;;24.44;38.27;99712.28;5070666;28;20090;-88
2022/06/10 10:40:32;;;;;;;;;;;;;;;24.41;42.45;99707.25;5070850;28;20404;-88
2022/06/10 10:43:04;;;;;;;8.15;1.20;;;;;;;24.65;38.89;99707.78;5069200;28;19931;-88
2022/06/10 10:45:34;;;;;;;5.38;1.02;;;;;;;24.63;36.71;99682.19;5063701;28;20127;-89
2022/06/10 10:48:17;;;;;;;8.07;1.13;;;;;;;24.27;36.05;99690.19;5069782;28;20048;-87
2022/06/10 10:50:55;;;;;;;3.08;0.95;;;;;;;24.74;37.86;99692.28;5070076;28;20080;-89
2022/06/10 10:53:26;;;;;;;5.32;1.08;;;;;;;24.84;34.65;99693.47;5049836;28;20118;-89
2022/06/10 10:55:55;;;;;;;4.47;1.70;;;;;;;25.27;37.33;99705.44;5049793;28;20060;-89
2022/06/10 10:58:28;;;;;;;8.40;1.55;;;;;;;24.82;35.52;99690.94;5055163;28;20514;-89
2022/06/10 11:00:59;;;;;;;3.10;0.90;;;;;;;25.55;37.14;99706.19;5069220;28;20048;-89
2022/06/10 11:03:29;;;;;;;3.25;1.10;;;;;;;24.91;35.62;99705.19;5061890;28;20036;-88
2022/06/10 11:05:58;;;;;;;3.03;1.05;;;;;;;24.68;36.08;99690.56;5065052;28;20180;-89
2022/06/10 11:08:28;;;;;;;4.85;1.20;;;;;;;24.64;37.72;99686.63;5070393;28;20043;-90
2022/06/10 11:11:01;;;;;;;6.22;0.93;;;;;;;24.97;36.80;99684.66;5070271;28;20056;-89
2022/06/10 11:13:37;;;;;;;4.57;1.10;;;;;;;24.86;37.16;99696.84;5069907;28;20072;-89
2022/06/10 11:16:38;;;;;;;3.05;0.93;;;;;;;24.94;37.74;99676.03;5066306;28;20057;-89
2022/06/10 11:19:16;;;;;;;5.10;1.00;;;;;;;25.29;39.23;99669.81;5067136;28;20052;-89
2022/06/10 11:21:52;;;;;;;5.63;0.95;;;;;;;25.43;36.72;99698.06;5063176;28;20045;-88
2022/06/10 11:24:26;;;;;;;3.60;1.08;;;;;;;25.42;35.77;99683.28;5069012;28;20045;-88
2022/06/10 11:26:55;;;;;;;4.07;0.90;;;;;;;24.54;38.09;99679.03;5069614;28;20138;-87
2022/06/10 11:29:23;;;;;;;3.65;1.00;;;;;;;24.97;37.17;99667.97;5083368;28;20545;-88
2022/06/10 11:31:55;;;;;;;4.82;1.00;;;;;;;25.34;36.66;99677.41;5073517;28;20499;-89
2022/06/10 11:34:32;;;;;;;7.57;1.15;;;;;;;25.67;35.18;99686.44;5072648;28;20052;-89
2022/06/10 11:36:59;;;;;;;2.75;0.80;;;;;;;25.67;33.61;99678.09;5073584;28;20411;-89
2022/06/10 11:39:28;;;;;;;4.43;1.20;;;;;;;25.74;33.77;99690.69;5071927;28;20052;-87
2022/06/10 11:42:16;;;;;;;3.88;0.90;;;;;;;24.80;35.19;99675.66;5074212;28;20091;-89
2022/06/10 11:44:53;;;;;;;4.40;0.95;;;;;;;24.46;35.72;99682.28;5054617;28;20049;-89
2022/06/10 11:47:28;;;;;;;2.67;0.70;;;;;;;24.61;34.14;99656.59;5055199;28;20049;-88
2022/06/10 11:50:02;;;;;;;2.17;1.00;;;;;;;25.19;35.87;99664.22;5060358;28;20215;-89
2022/06/10 11:52:36;;;;;;;2.95;1.00;;;;;;;25.49;33.64;99665.50;5067431;28;20052;-91
2022/06/10 11:55:10;;;;;;;1.77;0.85;;;;;;;25.02;33.51;99665.25;5087246;28;20084;-87
2022/06/10 12:00:32;;;;;;;7.68;1.05;;;;;;;25.21;34.37;99657.25;5070260;28;20076;-88
2022/06/10 12:03:12;;;;;;;2.80;1.02;;;;;;;25.08;34.74;99661.38;5070766;28;20049;-85
2022/06/10 12:05:52;;;;;;;3.10;0.90;;;;;;;25.29;33.44;99638.38;5094417;28;20144;-88
2022/06/10 12:08:28;;;;;;;;;;;;;;;25.54;33.50;99659.97;5095177;28;20048;-88
2022/06/10 12:10:58;;;;;;;1.80;0.63;;;;;;;25.85;32.44;99633.06;5092595;28;19935;-87
2022/06/10 12:13:25;;;;;;;4.72;1.20;;;;;;;25.94;32.06;99636.97;5080521;28;20041;-88
2022/06/10 12:15:56;;;;;;;6.60;1.20;;;;;;;26.69;35.27;99632.06;5087694;28;20091;-88
2022/06/10 12:18:27;;;;;;;4.93;1.00;;;;;;;26.38;32.86;99651.56;5070473;28;20123;-87
2022/06/10 12:20:59;;;;;;;7.20;1.10;;;;;;;26.02;31.31;99643.16;5074242;28;20056;-86
2022/06/10 12:23:29;;;;;;;4.13;1.13;;;;;;;25.93;32.35;99631.69;5073272;28;20435;-87
2022/06/10 12:26:04;;;;;;;;;;;;;;;25.97;31.89;99650.34;5074136;28;20044;-87
2022/06/10 12:28:41;;;;;;;1.45;0.80;;;;;;;25.84;32.61;99638.91;5072171;28;20250;-87
2022/06/10 12:31:20;;;;;;;2.97;1.05;;;;;;;26.00;32.43;99639.81;5070443;28;20044;-88
2022/06/10 12:33:55;;;;;;;5.57;0.90;;;;;;;26.13;35.95;99620.59;5068106;28;20055;-89
2022/06/10 12:36:31;;;;;;;6.07;1.27;;;;;;;26.20;35.34;99633.44;5073285;28;20457;-88
2022/06/10 12:39:00;;;;;;;4.60;0.93;;;;;;;26.50;34.45;99629.81;5070943;28;20049;-87
2022/06/10 12:41:36;;;;;;;1.73;0.90;;;;;;;26.71;35.59;99632.59;5072686;28;20106;-89
2022/06/10 12:44:06;;;;;;;3.90;0.80;;;;;;;26.60;32.81;99615.03;5071610;28;20140;-88
2022/06/10 12:46:41;;;;;;;4.75;1.35;;;;;;;26.06;32.67;99633.97;5071184;28;20068;-88
2022/06/10 12:49:18;;;;;;;5.95;1.00;;;;;;;26.54;32.12;99621.72;5071350;28;20137;-88
2022/06/10 12:52:00;;;;;;;4.00;1.17;;;;;;;26.69;32.83;99629.28;5072397;28;20052;-87
2022/06/10 12:54:33;;;;;;;1.58;0.88;;;;;;;26.94;32.83;99620.03;5071788;28;20048;-88
2022/06/10 12:57:34;;;;;;;4.40;1.02;;;;;;;27.08;33.70;99620.28;5071190;28;20273;-88
2022/06/10 13:00:38;;;;;;;2.50;0.73;;;;;;;27.14;35.11;99619.13;5062776;28;20144;-88
2022/06/10 13:03:25;;;;;;;2.97;0.90;;;;;;;26.82;34.20;99617.53;5070020;28;20048;-89
2022/06/10 13:05:52;;;;;;;7.13;0.90;;;;;;;26.77;34.83;99598.03;5072036;28;20063;-90
2022/06/10 13:08:50;;;;;;;8.85;1.10;;;;;;;27.04;32.65;99611.66;5072005;28;20048;-89
2022/06/10 13:11:38;;;;;;;3.13;0.90;;;;;;;26.85;33.77;99606.66;5071200;28;20060;-89
2022/06/10 13:14:36;;;;;;;2.50;1.35;;;;;;;26.89;34.46;99583.75;5068823;28;20161;-88
2022/06/10 13:17:17;;;;;;;2.35;0.68;;;;;;;27.18;32.81;99601.53;5069290;28;20484;-89
2022/06/10 13:20:09;;;;;;;3.50;0.85;;;;;;;27.17;30.91;99579.50;5069270;28;20049;-89
2022/06/10 13:22:38;;;;;;;2.08;0.80;;;;;;;26.62;29.86;99584.94;5071392;28;20086;-87
2022/06/10 13:25:33;;;;;;;6.25;1.10;;;;;;;26.38;29.41;99579.94;5090745;28;20039;-88
2022/06/10 13:28:00;;;;;;;1.42;0.70;;;;;;;26.93;28.52;99590.47;5035344;28;20398;-87
2022/06/10 13:30:31;;;;;;;4.57;1.27;;;;;;;26.74;28.92;99577.13;5072440;28;20459;-89
2022/06/10 13:33:16;;;;;;;3.28;0.70;;;;;;;27.37;29.80;99584.22;5091620;28;20055;-89
2022/06/10 13:35:55;;;;;;;9.00;2.03;;;;;;;27.52;31.70;99589.72;5087450;28;20406;-89
2022/06/10 13:38:28;;;;;;;3.60;0.98;;;;;;;27.41;30.14;99581.66;5071356;28;20105;-88
2022/06/10 13:43:41;;;;;;;2.28;1.00;;;;;;;27.34;28.93;99588.41;5062746;28;20055;-88
2022/06/10 13:46:12;;;;;;;3.90;0.80;;;;;;;27.09;29.37;99571.72;5068784;28;20053;-87
2022/06/10 13:48:39;;;;;;;1.80;0.52;;;;;;;26.65;28.84;99578.78;5068167;28;20309;-88
2022/06/10 13:51:27;;;;;;;3.95;1.10;;;;;;;26.80;29.68;99581.56;5073731;28;20049;-85
2022/06/10 13:54:02;;;;;;;3.38;0.90;;;;;;;26.69;28.54;99573.50;5073728;28;20063;-87
2022/06/10 13:56:35;;;;;;;6.97;0.85;;;;;;;27.18;29.53;99578.38;5067889;28;20455;-88
2022/06/10 13:59:02;;;;;;;4.43;1.20;;;;;;;27.42;28.02;99547.88;5078605;28;20044;-88
2022/06/10 14:01:39;;;;;;;4.22;0.88;;;;;;;27.38;28.73;99569.09;5074930;28;20094;-88
2022/06/10 14:04:18;;;;;;;3.38;0.95;;;;;;;27.29;28.63;99554.06;5094188;28;20056;-88
2022/06/10 14:06:49;;;;;;;2.38;0.70;;;;;;;27.69;28.30;99552.19;5097919;28;20044;-88
2022/06/10 14:09:28;;;;;;;2.20;0.90;;;;;;;27.93;27.96;99565.41;5079661;28;20137;-88
2022/06/10 14:12:19;;;;;;;5.05;0.85;;;;;;;27.99;29.28;99559.53;5062418;28;20085;-87
2022/06/10 14:14:48;;;;;;;6.97;1.15;;;;;;;27.65;28.44;99553.88;5065018;28;20043;-86
2022/06/10 14:17:22;;;;;;;4.63;1.20;;;;;;;27.05;31.13;99546.34;5070166;28;20060;-86
2022/06/10 14:19:52;;;;;;;2.40;0.90;;;;;;;27.59;28.90;99549.47;5070890;28;20095;-86
2022/06/10 14:22:22;;;;;;;;;;;;;;;27.70;30.89;99563.06;5069388;28;20121;-87
2022/06/10 14:25:27;;;;;;;2.67;0.90;;;;;;;27.42;28.45;99564.63;5069828;28;19966;-85
2022/06/10 14:28:12;;;;;;;10.18;0.95;;;;;;;27.72;31.03;99552.44;5072797;28;20447;-87
2022/06/10 14:30:53;;;;;;;9.52;2.65;;;;;;;27.50;29.97;99572.38;5074911;28;20144;-86
2022/06/10 14:33:26;;;;;;;5.15;0.98;;;;;;;27.49;29.54;99553.13;5058095;28;20109;-86
2022/06/10 14:36:06;;;;;;;3.60;0.98;;;;;;;27.76;30.48;99557.44;5070246;28;20049;-85
2022/06/10 14:38:33;;;;;;;2.80;0.98;;;;;;;27.97;30.53;99552.56;5077961;28;20093;-88
2022/06/10 14:41:03;;;;;;;2.25;0.80;;;;;;;27.96;30.98;99553.66;5075613;28;20135;-88
2022/06/10 14:43:34;;;;;;;2.90;1.30;;;;;;;27.85;29.71;99547.31;5089910;28;20457;-88
2022/06/10 14:46:07;;;;;;;1.80;0.80;;;;;;;27.69;29.46;99541.84;5077380;28;20082;-87
2022/06/10 14:48:37;;;;;;;2.88;0.82;;;;;;;27.76;28.00;99540.69;5066989;28;20090;-87
2022/06/10 14:51:11;;;;;;;4.25;0.93;;;;;;;27.50;30.17;99554.81;5076944;28;20052;-88
2022/06/10 14:53:41;;;;;;;6.60;1.00;;;;;;;27.04;29.71;99527.94;5069644;28;20049;-88
2022/06/10 14:56:14;;;;;;;2.85;0.65;;;;;;;26.83;31.09;99555.91;5072134;28;20048;-88
2022/06/10 14:58:47;;;;;;;1.98;0.73;;;;;;;26.52;29.98;99515.25;5071658;28;20052;-87
2022/06/10 15:01:23;;;;;;;2.25;0.68;;;;;;;26.77;30.21;99519.97;5083954;28;20048;-87
2022/06/10 15:03:50;;;;;;;2.33;0.73;;;;;;;26.63;31.20;99530.81;5068927;28;20442;-87
2022/06/10 15:06:27;;;;;;;3.13;1.00;;;;;;;26.01;32.50;99555.13;5074867;28;20075;-87
2022/06/10 15:08:57;;;;;;;2.92;0.73;;;;;;;25.54;32.85;99545.84;5073731;28;20508;-87
2022/06/10 15:11:25;;;;;;;4.07;0.98;;;;;;;25.76;31.34;99510.25;5074854;28;20045;-87
2022/06/10 15:13:54;;;;;;;4.50;0.93;;;;;;;26.29;29.38;99525.88;5073132;28;20403;-86
2022/06/10 15:16:22;;;;;;;4.72;1.05;;;;;;;26.65;29.95;99523.03;5069581;28;20041;-86
2022/06/10 15:18:49;;;;;;;3.08;0.90;;;;;;;26.96;29.14;99528.50;5069051;28;20048;-86
2022/06/10 15:21:20;;;;;;;2.05;0.88;;;;;;;26.48;29.08;99507.44;5073316;28;20051;-86
2022/06/10 15:23:50;;;;;;;1.77;0.77;;;;;;;26.81;28.86;99540.56;5067430;28;20510;-86
2022/06/10 15:26:22;;;;;;;4.32;0.80;;;;;;;27.05;29.24;99509.25;5071334;28;20616;-89
2022/06/10 15:28:50;;;;;;;8.10;0.90;;;;;;;26.95;29.18;99501.72;5073264;28;20490;-87
2022/06/10 15:31:19;;;;;;;1.73;0.80;;;;;;;26.89;29.32;99522.41;5072532;28;20139;-87
2022/06/10 15:33:46;;;;;;;1.83;0.52;;;;;;;27.18;29.39;99514.19;5071403;28;20557;-87
2022/06/10 15:41:47;;;;;;;3.88;1.02;;;;;;;27.26;29.23;99516.38;5083197;28;20051;-87
2022/06/10 15:44:25;;;;;;;3.05;0.95;;;;;;;27.27;30.28;99532.00;5077412;28;20044;-86
2022/06/10 15:46:54;;;;;;;3.50;0.82;;;;;;;27.23;29.12;99499.38;5089050;28;20055;-86
2022/06/10 15:49:21;;;;;;;2.22;0.98;;;;;;;27.09;29.90;99500.00;5088397;28;20147;-86
2022/06/10 15:51:53;;;;;;;2.28;1.00;;;;;;;27.57;30.23;99521.81;5070284;28;20083;-84
2022/06/10 15:54:26;;;;;;;2.55;0.93;;;;;;;27.43;29.18;99513.25;5066039;28;20041;-84
2022/06/10 15:57:06;;;;;;;4.45;0.90;;;;;;;27.74;30.41;99513.03;5082375;28;20127;-85
2022/06/10 15:59:35;;;;;;;5.05;0.93;;;;;;;27.54;29.40;99500.06;5081527;28;20044;-84
2022/06/10 16:02:03;;;;;;;3.90;1.20;;;;;;;27.00;29.49;99510.09;5079361;28;20052;-82
2022/06/10 16:04:30;;;;;;;2.58;1.00;;;;;;;27.27;29.78;99498.53;5069187;28;20048;-88
2022/06/10 16:06:57;;;;;;;9.43;1.45;;;;;;;27.61;30.03;99506.16;5072124;28;20048;-87
2022/06/10 16:09:23;;;;;;;4.80;0.80;;;;;;;27.37;29.70;99509.66;5072218;28;20399;-84
2022/06/10 16:14:38;;;;;;;2.75;0.80;;;;;;;26.80;30.59;99495.13;5051575;28;20080;-82
2022/06/10 16:17:07;;;;;;;;;;;;;;;26.84;29.49;99514.88;5064893;28;20042;-81
2022/06/10 16:19:34;;;;;;;5.30;0.95;;;;;;;27.10;29.30;99507.25;5057136;28;20242;-87
2022/06/10 16:22:00;;;;;;;2.13;0.93;;;;;;;26.88;30.33;99474.16;5064875;28;20049;-80
2022/06/10 16:24:27;;;;;;;8.07;1.30;;;;;;;26.86;29.80;99504.31;5069727;28;20873;-84
2022/06/10 16:26:54;;;;;;;5.97;1.35;;;;;;;26.64;30.01;99497.06;5063329;28;20091;-90
2022/06/10 16:29:26;;;;;;;2.90;1.02;;;;;;;26.54;29.58;99480.38;5071567;28;20052;-84
2022/06/10 16:32:05;;;;;;;1.98;0.93;;;;;;;26.56;30.44;99480.94;5063433;28;20139;-84
2022/06/10 16:34:39;;;;;;;1.80;0.80;;;;;;;26.79;29.87;99496.22;5069721;28;20051;-84
2022/06/10 16:37:06;;;;;;;2.72;0.65;;;;;;;26.52;30.95;99473.44;5060544;28;20408;-84
2022/06/10 16:39:52;;;;;;;5.10;0.90;;;;;;;26.63;31.24;99475.06;5072311;28;20055;-84
2022/06/10 16:42:22;;;;;;;3.20;1.00;;;;;;;26.85;29.93;99469.97;5080582;28;20063;-83
2022/06/10 16:44:49;;;;;;;;;;;;;;;26.99;30.05;99500.06;5067562;28;20055;-82
2022/06/10 16:47:18;;;;;;;3.47;0.70;;;;;;;27.20;30.46;99486.84;5073516;28;19924;-82
2022/06/10 16:49:50;;;;;;;3.65;0.70;;;;;;;27.14;29.65;99486.00;5071372;28;20057;-83
2022/06/10 16:52:22;;;;;;;3.03;1.05;;;;;;;27.42;30.10;99491.22;5070585;28;20060;-83
2022/06/10 16:54:50;;;;;;;3.30;1.05;;;;;;;27.40;31.99;99494.31;5077082;28;20047;-83
2022/06/10 16:57:20;;;;;;;3.97;1.07;;;;;;;27.08;30.34;99467.63;5079813;28;20049;-82
2022/06/10 16:59:47;;;;;;;;;;;;;;;26.89;32.24;99497.28;5075190;28;20060;-82
2022/06/10 17:02:22;;;;;;;4.57;0.93;;;;;;;26.76;32.13;99479.25;5067210;28;19928;-82
2022/06/10 17:04:52;;;;;;;2.60;1.10;;;;;;;26.74;30.69;99470.31;5069539;28;20052;-82
2022/06/10 17:07:19;;;;;;;;;;;;;;;26.91;31.23;99492.28;5090651;28;20056;-81
2022/06/10 17:09:46;;;;;;;3.30;1.00;;;;;;;26.57;31.55;99484.56;5089978;28;20351;-82
2022/06/10 17:12:18;;;;;;;3.80;1.00;;;;;;;26.58;33.69;99489.03;5089286;28;20044;-82
2022/06/10 17:14:45;;;;;;;2.38;0.88;;;;;;;26.66;31.97;99485.63;5074818;28;20048;-82
2022/06/10 17:17:17;;;;;;;1.30;0.70;;;;;;;26.63;32.27;99491.78;5068299;28;20057;-82
2022/06/10 17:19:44;;;;;;;5.88;0.77;;;;;;;26.41;31.72;99469.84;5070508;28;20052;-81
2022/06/10 17:22:15;;;;;;;3.55;0.85;;;;;;;26.52;31.42;99479.84;5066089;28;20049;-82
2022/06/10 17:24:42;;;;;;;2.30;0.75;;;;;;;26.43;31.72;99478.75;5069658;28;20489;-82
2022/06/10 17:27:13;;;;;;;3.88;0.90;;;;;;;26.20;31.87;99471.84;5067348;28;20129;-82
2022/06/10 17:29:40;;;;;;;5.43;1.10;;;;;;;26.08;32.23;99475.72;5070010;28;20078;-82
2022/06/10 17:32:18;;;;;;;7.47;1.38;;;;;;;25.90;32.09;99468.75;5066268;28;20059;-82
2022/06/10 17:34:46;;;;;;;3.17;0.95;;;;;;;26.01;31.77;99474.34;5070048;28;20427;-81
2022/06/10 17:37:16;;;;;;;3.10;0.80;;;;;;;25.67;33.10;99470.16;5067636;28;20056;-81
2022/06/10 17:39:43;;;;;;;6.95;0.90;;;;;;;25.37;33.58;99488.47;5064517;28;20060;-81
2022/06/10 17:42:13;;;;;;;2.80;0.95;;;;;;;25.50;33.08;99497.41;5089021;28;20514;-81
2022/06/10 17:44:40;;;;;;;4.53;1.10;;;;;;;25.09;33.55;99484.19;5085052;28;20037;-82
2022/06/10 17:47:15;;;;;;;5.15;1.20;;;;;;;24.94;34.63;99484.97;5070350;28;20054;-81
2022/06/10 17:49:44;;;;;;;2.28;0.88;;;;;;;24.82;34.99;99487.97;5070443;28;20719;-81
2022/06/10 17:52:14;;;;;;;1.60;0.60;;;;;;;24.56;34.82;99467.53;5058947;28;20411;-81
2022/06/10 17:54:44;;;;;;;2.15;0.90;;;;;;;24.53;37.07;99488.38;5065215;28;20298;-81
2022/06/10 17:57:22;;;;;;;3.45;1.00;;;;;;;24.46;34.92;99492.50;5069399;28;20401;-81
2022/06/10 17:59:53;;;;;;;2.80;0.75;;;;;;;24.39;36.24;99492.75;5069631;28;20054;-82
2022/06/10 18:02:29;;;;;;;5.05;1.10;;;;;;;24.44;37.71;99495.53;5068378;28;20087;-82
2022/06/10 18:04:57;;;;;;;5.43;1.30;;;;;;;24.23;38.33;99491.78;5080019;28;20246;-82
2022/06/10 18:07:24;;;;;;;3.28;0.90;;;;;;;23.84;41.13;99478.13;5061765;28;20566;-81
2022/06/10 18:09:52;;;;;;;3.65;1.05;;;;;;;23.84;41.58;99492.03;5069042;28;20051;-81
2022/06/10 18:12:23;;;;;;;1.83;0.82;;;;;;;23.66;43.97;99494.06;5068076;28;20053;-81
2022/06/10 18:14:53;;;;;;;2.75;1.05;;;;;;;23.45;43.94;99493.03;5069362;28;20053;-81
2022/06/10 18:17:20;;;;;;;;;;;;;;;23.32;43.73;99493.47;5068433;28;20140;-81
2022/06/10 18:19:46;;;;;;;4.72;1.27;;;;;;;23.12;45.33;99482.97;5069258;28;19920;-81
2022/06/10 18:22:14;;;;;;;2.38;0.85;;;;;;;23.08;46.45;99490.09;5066928;28;20060;-81
2022/06/10 18:24:41;;;;;;;2.92;0.82;;;;;;;22.88;45.53;99472.13;5068809;28;20037;-81
2022/06/10 18:27:18;;;;;;;2.72;0.80;;;;;;;22.89;45.82;99496.00;5069117;28;20387;-81
2022/06/10 18:29:49;;;;;;;3.28;0.85;;;;;;;22.73;47.77;99481.13;5068181;28;20122;-81
2022/06/10 18:32:19;;;;;;;3.15;1.08;;;;;;;22.59;47.83;99477.03;5059911;28;20051;-81
2022/06/10 18:34:48;;;;;;;3.70;1.40;;;;;;;22.66;47.09;99486.00;5077255;28;20495;-81
2022/06/10 18:37:17;;;;;;;1.15;0.80;;;;;;;22.62;47.16;99476.53;5089382;28;20490;-81
2022/06/10 18:39:47;;;;;;;5.55;1.10;;;;;;;22.68;47.66;99494.06;5072010;28;20550;-81
2022/06/10 18:42:18;;;;;;;2.40;1.13;;;;;;;22.67;47.80;99492.38;5066690;28;20078;-81
2022/06/10 18:44:45;;;;;;;2.40;1.10;;;;;;;22.49;48.63;99488.81;5063921;28;20404;-81
2022/06/10 18:47:17;;;;;;;3.28;0.95;;;;;;;22.46;48.08;99492.09;5077067;28;20337;-81
2022/06/10 18:49:43;;;;;;;3.70;1.00;;;;;;;22.40;48.76;99490.34;5089168;28;20055;-81
2022/06/10 18:52:12;;;;;;;4.00;0.98;;;;;;;22.32;49.54;99494.38;5087800;28;20072;-81
2022/06/10 18:54:44;;;;;;;3.25;0.90;;;;;;;22.28;48.88;99493.19;5056826;28;20060;-81
2022/06/10 18:57:13;;;;;;;2.03;0.90;;;;;;;22.19;49.36;99492.78;5068771;28;20045;-81
2022/06/10 18:59:43;;;;;;;4.38;0.98;;;;;;;21.97;51.76;99484.41;5064807;28;20059;-81
2022/06/10 19:02:16;;;;;;;4.18;1.10;;;;;;;22.06;53.62;99496.72;5064979;28;20049;-81